sensor_id;sensor_type;location;lat;lon;timestamp;pressure;altitude;pressure_sealevel;temperature;humidity
64835;BME280;51293;59.296;18.006;2022-07-29T00:00:26;101777.88;;;12.23;74.58
64835;BME280;51293;59.296;18.006;2022-07-29T00:02:51;101772.91;;;12.20;74.70
64835;BME280;51293;59.296;18.006;2022-07-29T00:05:17;101782.31;;;12.17;74.73
64835;BME280;51293;59.296;18.006;2022-07-29T00:07:42;101778.78;;;12.17;74.56
64835;BME280;51293;59.296;18.006;2022-07-29T00:10:08;101777.72;;;12.18;74.70
64835;BME280;51293;59.296;18.006;2022-07-29T00:12:33;101771.47;;;12.17;74.64
64835;BME280;51293;59.296;18.006;2022-07-29T00:14:59;101772.69;;;12.15;74.59
64835;BME280;51293;59.296;18.006;2022-07-29T00:17:24;101768.94;;;12.16;74.47
64835;BME280;51293;59.296;18.006;2022-07-29T00:19:50;101766.66;;;12.13;74.34
64835;BME280;51293;59.296;18.006;2022-07-29T00:22:15;101768.75;;;12.11;75.17
64835;BME280;51293;59.296;18.006;2022-07-29T00:24:41;101776.47;;;12.14;74.66
64835;BME280;51293;59.296;18.006;2022-07-29T00:27:06;101773.97;;;12.12;74.98
64835;BME280;51293;59.296;18.006;2022-07-29T00:29:32;101771.69;;;12.09;75.29
64835;BME280;51293;59.296;18.006;2022-07-29T00:31:57;101758.31;;;12.07;75.20
64835;BME280;51293;59.296;18.006;2022-07-29T00:34:23;101771.50;;;12.04;75.55
64835;BME280;51293;59.296;18.006;2022-07-29T00:37:06;101769.22;;;12.01;75.62
64835;BME280;51293;59.296;18.006;2022-07-29T00:39:32;101770.06;;;12.01;75.85
64835;BME280;51293;59.296;18.006;2022-07-29T00:41:57;101766.31;;;11.96;76.04
64835;BME280;51293;59.296;18.006;2022-07-29T00:44:22;101771.50;;;11.97;75.95
64835;BME280;51293;59.296;18.006;2022-07-29T00:46:48;101769.25;;;11.94;76.13
64835;BME280;51293;59.296;18.006;2022-07-29T00:49:13;101764.22;;;11.91;76.26
64835;BME280;51293;59.296;18.006;2022-07-29T00:51:39;101758.78;;;11.91;76.43
64835;BME280;51293;59.296;18.006;2022-07-29T00:54:05;101757.34;;;11.89;76.25
64835;BME280;51293;59.296;18.006;2022-07-29T00:56:31;101753.41;;;11.85;76.42
64835;BME280;51293;59.296;18.006;2022-07-29T00:58:58;101757.19;;;11.84;76.17
64835;BME280;51293;59.296;18.006;2022-07-29T01:01:24;101749.44;;;11.80;76.59
64835;BME280;51293;59.296;18.006;2022-07-29T01:03:49;101758.41;;;11.81;76.69
64835;BME280;51293;59.296;18.006;2022-07-29T01:06:19;101758.81;;;11.78;76.67
64835;BME280;51293;59.296;18.006;2022-07-29T01:08:46;101751.72;;;11.77;76.38
64835;BME280;51293;59.296;18.006;2022-07-29T01:11:13;101756.31;;;11.76;76.30
64835;BME280;51293;59.296;18.006;2022-07-29T01:13:40;101754.66;;;11.75;76.30
64835;BME280;51293;59.296;18.006;2022-07-29T01:16:17;101755.91;;;11.73;76.47
64835;BME280;51293;59.296;18.006;2022-07-29T01:18:47;101757.16;;;11.70;76.46
64835;BME280;51293;59.296;18.006;2022-07-29T01:24:22;101761.56;;;11.71;76.56
64835;BME280;51293;59.296;18.006;2022-07-29T01:29:28;101757.16;;;11.70;76.66
64835;BME280;51293;59.296;18.006;2022-07-29T01:32:02;101759.28;;;11.68;76.80
64835;BME280;51293;59.296;18.006;2022-07-29T01:34:41;101759.69;;;11.65;76.96
64835;BME280;51293;59.296;18.006;2022-07-29T01:39:42;101756.13;;;11.65;76.70
64835;BME280;51293;59.296;18.006;2022-07-29T01:47:33;101758.84;;;11.65;76.76
64835;BME280;51293;59.296;18.006;2022-07-29T01:50:01;101754.25;;;11.65;76.69
64835;BME280;51293;59.296;18.006;2022-07-29T01:52:46;101758.22;;;11.63;76.56
64835;BME280;51293;59.296;18.006;2022-07-29T01:55:16;101766.59;;;11.61;76.48
64835;BME280;51293;59.296;18.006;2022-07-29T01:57:47;101756.78;;;11.60;76.51
64835;BME280;51293;59.296;18.006;2022-07-29T02:00:13;101749.69;;;11.59;76.70
64835;BME280;51293;59.296;18.006;2022-07-29T02:02:42;101761.56;;;11.58;76.74
64835;BME280;51293;59.296;18.006;2022-07-29T02:05:11;101765.16;;;11.59;76.75
64835;BME280;51293;59.296;18.006;2022-07-29T02:07:39;101756.56;;;11.55;76.72
64835;BME280;51293;59.296;18.006;2022-07-29T02:10:07;101756.78;;;11.53;76.88
64835;BME280;51293;59.296;18.006;2022-07-29T02:12:34;101754.09;;;11.53;77.22
64835;BME280;51293;59.296;18.006;2022-07-29T02:15:03;101759.06;;;11.50;77.22
64835;BME280;51293;59.296;18.006;2022-07-29T02:17:41;101755.13;;;11.52;77.19
64835;BME280;51293;59.296;18.006;2022-07-29T02:20:07;101755.13;;;11.52;77.35
64835;BME280;51293;59.296;18.006;2022-07-29T02:22:37;101755.97;;;11.53;77.32
64835;BME280;51293;59.296;18.006;2022-07-29T02:25:03;101759.28;;;11.55;77.38
64835;BME280;51293;59.296;18.006;2022-07-29T02:27:30;101757.22;;;11.50;77.63
64835;BME280;51293;59.296;18.006;2022-07-29T02:30:00;101757.41;;;11.49;77.56
64835;BME280;51293;59.296;18.006;2022-07-29T02:32:28;101758.47;;;11.48;77.55
64835;BME280;51293;59.296;18.006;2022-07-29T02:34:56;101765.78;;;11.47;77.81
64835;BME280;51293;59.296;18.006;2022-07-29T02:37:22;101765.78;;;11.47;77.82
64835;BME280;51293;59.296;18.006;2022-07-29T02:39:48;101759.94;;;11.44;78.15
64835;BME280;51293;59.296;18.006;2022-07-29T02:42:16;101767.25;;;11.43;78.22
64835;BME280;51293;59.296;18.006;2022-07-29T02:44:43;101767.44;;;11.42;77.91
64835;BME280;51293;59.296;18.006;2022-07-29T02:47:36;101768.91;;;11.38;78.14
64835;BME280;51293;59.296;18.006;2022-07-29T02:50:12;101767.69;;;11.34;78.29
64835;BME280;51293;59.296;18.006;2022-07-29T02:52:41;101774.34;;;11.31;78.51
64835;BME280;51293;59.296;18.006;2022-07-29T02:55:19;101772.25;;;11.33;78.52
64835;BME280;51293;59.296;18.006;2022-07-29T02:57:51;101777.91;;;11.32;78.50
64835;BME280;51293;59.296;18.006;2022-07-29T03:00:19;101776.22;;;11.31;78.86
64835;BME280;51293;59.296;18.006;2022-07-29T03:02:48;101776.44;;;11.29;78.65
64835;BME280;51293;59.296;18.006;2022-07-29T03:05:17;101777.50;;;11.28;78.41
64835;BME280;51293;59.296;18.006;2022-07-29T03:07:46;101783.53;;;11.23;78.46
64835;BME280;51293;59.296;18.006;2022-07-29T03:10:12;101779.97;;;11.23;78.38
64835;BME280;51293;59.296;18.006;2022-07-29T03:12:39;101785.41;;;11.23;78.36
64835;BME280;51293;59.296;18.006;2022-07-29T03:15:06;101782.47;;;11.24;78.21
64835;BME280;51293;59.296;18.006;2022-07-29T03:17:32;101784.19;;;11.25;78.11
64835;BME280;51293;59.296;18.006;2022-07-29T03:19:58;101783.75;;;11.29;78.07
64835;BME280;51293;59.296;18.006;2022-07-29T03:22:24;101787.91;;;11.31;78.10
64835;BME280;51293;59.296;18.006;2022-07-29T03:24:50;101784.16;;;11.32;78.18
64835;BME280;51293;59.296;18.006;2022-07-29T03:27:16;101784.59;;;11.36;78.05
64835;BME280;51293;59.296;18.006;2022-07-29T03:29:41;101795.00;;;11.39;77.93
64835;BME280;51293;59.296;18.006;2022-07-29T03:32:06;101794.78;;;11.40;77.94
64835;BME280;51293;59.296;18.006;2022-07-29T03:34:32;101795.44;;;11.42;78.16
64835;BME280;51293;59.296;18.006;2022-07-29T03:36:57;101797.94;;;11.44;78.12
64835;BME280;51293;59.296;18.006;2022-07-29T03:39:31;101792.91;;;11.47;77.91
64835;BME280;51293;59.296;18.006;2022-07-29T03:41:59;101794.78;;;11.53;77.88
64835;BME280;51293;59.296;18.006;2022-07-29T03:44:25;101793.13;;;11.59;77.77
64835;BME280;51293;59.296;18.006;2022-07-29T03:46:53;101789.53;;;11.65;77.42
64835;BME280;51293;59.296;18.006;2022-07-29T03:49:21;101792.66;;;11.69;77.67
64835;BME280;51293;59.296;18.006;2022-07-29T03:51:47;101788.69;;;11.71;77.53
64835;BME280;51293;59.296;18.006;2022-07-29T03:54:14;101796.00;;;11.77;77.15
64835;BME280;51293;59.296;18.006;2022-07-29T03:56:43;101791.41;;;11.78;77.10
64835;BME280;51293;59.296;18.006;2022-07-29T03:59:13;101792.66;;;11.82;76.89
64835;BME280;51293;59.296;18.006;2022-07-29T04:01:40;101791.41;;;11.85;76.70
64835;BME280;51293;59.296;18.006;2022-07-29T04:04:06;101798.06;;;11.89;76.33
64835;BME280;51293;59.296;18.006;2022-07-29T04:06:39;101800.38;;;11.92;76.25
64835;BME280;51293;59.296;18.006;2022-07-29T04:09:05;101800.78;;;11.95;76.21
64835;BME280;51293;59.296;18.006;2022-07-29T04:11:30;101797.44;;;12.00;76.32
64835;BME280;51293;59.296;18.006;2022-07-29T04:13:56;101806.78;;;12.04;76.09
64835;BME280;51293;59.296;18.006;2022-07-29T04:16:21;101813.44;;;12.08;75.98
64835;BME280;51293;59.296;18.006;2022-07-29T04:18:47;101815.53;;;12.13;75.70
64835;BME280;51293;59.296;18.006;2022-07-29T04:21:12;101809.25;;;12.19;75.60
64835;BME280;51293;59.296;18.006;2022-07-29T04:23:37;101804.00;;;12.24;75.38
64835;BME280;51293;59.296;18.006;2022-07-29T04:26:03;101809.63;;;12.29;74.77
64835;BME280;51293;59.296;18.006;2022-07-29T04:28:28;101809.00;;;12.33;74.57
64835;BME280;51293;59.296;18.006;2022-07-29T04:30:53;101812.72;;;12.39;74.55
64835;BME280;51293;59.296;18.006;2022-07-29T04:33:19;101811.63;;;12.47;74.28
64835;BME280;51293;59.296;18.006;2022-07-29T04:35:44;101806.16;;;12.53;74.24
64835;BME280;51293;59.296;18.006;2022-07-29T04:38:09;101810.50;;;12.61;73.88
64835;BME280;51293;59.296;18.006;2022-07-29T04:40:35;101803.38;;;12.67;73.84
64835;BME280;51293;59.296;18.006;2022-07-29T04:43:01;101804.16;;;12.74;73.51
64835;BME280;51293;59.296;18.006;2022-07-29T04:45:27;101806.59;;;12.82;73.29
64835;BME280;51293;59.296;18.006;2022-07-29T04:47:53;101812.59;;;12.90;73.49
64835;BME280;51293;59.296;18.006;2022-07-29T04:50:19;101802.75;;;12.96;73.33
64835;BME280;51293;59.296;18.006;2022-07-29T04:52:44;101804.38;;;13.04;72.91
64835;BME280;51293;59.296;18.006;2022-07-29T04:55:09;101807.41;;;13.14;72.96
64835;BME280;51293;59.296;18.006;2022-07-29T04:57:35;101802.16;;;13.26;73.08
64835;BME280;51293;59.296;18.006;2022-07-29T05:00:00;101800.81;;;13.35;72.97
64835;BME280;51293;59.296;18.006;2022-07-29T05:02:26;101801.34;;;13.43;72.67
64835;BME280;51293;59.296;18.006;2022-07-29T05:04:51;101805.44;;;13.53;72.66
64835;BME280;51293;59.296;18.006;2022-07-29T05:07:17;101807.06;;;13.60;72.61
64835;BME280;51293;59.296;18.006;2022-07-29T05:09:42;101806.75;;;13.68;72.69
64835;BME280;51293;59.296;18.006;2022-07-29T05:12:08;101814.41;;;13.78;72.65
64835;BME280;51293;59.296;18.006;2022-07-29T05:14:33;101825.00;;;13.86;72.78
64835;BME280;51293;59.296;18.006;2022-07-29T05:16:59;101812.97;;;13.94;72.77
64835;BME280;51293;59.296;18.006;2022-07-29T05:19:24;101822.75;;;14.01;72.23
64835;BME280;51293;59.296;18.006;2022-07-29T05:21:49;101811.31;;;14.11;72.03
64835;BME280;51293;59.296;18.006;2022-07-29T05:24:15;101821.66;;;14.21;71.59
64835;BME280;51293;59.296;18.006;2022-07-29T05:26:41;101813.41;;;14.27;71.38
64835;BME280;51293;59.296;18.006;2022-07-29T05:29:06;101823.19;;;14.35;70.30
64835;BME280;51293;59.296;18.006;2022-07-29T05:31:31;101821.22;;;14.42;69.67
64835;BME280;51293;59.296;18.006;2022-07-29T05:33:58;101812.16;;;14.48;66.68
64835;BME280;51293;59.296;18.006;2022-07-29T05:36:23;101822.25;;;14.59;66.54
64835;BME280;51293;59.296;18.006;2022-07-29T05:38:49;101823.00;;;14.67;65.65
64835;BME280;51293;59.296;18.006;2022-07-29T05:41:15;101817.00;;;14.76;65.73
64835;BME280;51293;59.296;18.006;2022-07-29T05:43:41;101823.78;;;14.85;65.47
64835;BME280;51293;59.296;18.006;2022-07-29T05:46:06;101820.47;;;14.95;65.61
64835;BME280;51293;59.296;18.006;2022-07-29T05:48:32;101823.69;;;15.04;65.49
64835;BME280;51293;59.296;18.006;2022-07-29T05:50:57;101814.34;;;15.11;64.91
64835;BME280;51293;59.296;18.006;2022-07-29T05:53:23;101824.81;;;15.26;63.04
64835;BME280;51293;59.296;18.006;2022-07-29T05:55:49;101825.53;;;15.33;61.99
64835;BME280;51293;59.296;18.006;2022-07-29T05:58:14;101828.16;;;15.40;62.23
64835;BME280;51293;59.296;18.006;2022-07-29T06:00:40;101835.41;;;15.46;63.09
64835;BME280;51293;59.296;18.006;2022-07-29T06:03:05;101835.28;;;15.53;63.12
64835;BME280;51293;59.296;18.006;2022-07-29T06:05:30;101829.72;;;15.59;61.95
64835;BME280;51293;59.296;18.006;2022-07-29T06:07:56;101828.31;;;15.68;60.18
64835;BME280;51293;59.296;18.006;2022-07-29T06:10:21;101830.56;;;15.71;59.11
64835;BME280;51293;59.296;18.006;2022-07-29T06:12:47;101826.53;;;15.74;58.22
64835;BME280;51293;59.296;18.006;2022-07-29T06:15:12;101831.41;;;15.84;58.67
64835;BME280;51293;59.296;18.006;2022-07-29T06:17:38;101828.78;;;15.89;59.13
64835;BME280;51293;59.296;18.006;2022-07-29T06:20:03;101839.13;;;15.98;58.53
64835;BME280;51293;59.296;18.006;2022-07-29T06:22:29;101843.00;;;16.02;58.18
64835;BME280;51293;59.296;18.006;2022-07-29T06:24:55;101836.22;;;16.05;53.86
64835;BME280;51293;59.296;18.006;2022-07-29T06:27:20;101844.53;;;16.10;52.49
64835;BME280;51293;59.296;18.006;2022-07-29T06:29:45;101849.88;;;16.17;51.75
64835;BME280;51293;59.296;18.006;2022-07-29T06:32:11;101852.75;;;16.22;52.76
64835;BME280;51293;59.296;18.006;2022-07-29T06:34:36;101849.28;;;16.26;52.14
64835;BME280;51293;59.296;18.006;2022-07-29T06:37:08;101851.03;;;16.33;51.34
64835;BME280;51293;59.296;18.006;2022-07-29T06:39:35;101854.69;;;16.38;51.05
64835;BME280;51293;59.296;18.006;2022-07-29T06:42:02;101849.09;;;16.45;50.69
64835;BME280;51293;59.296;18.006;2022-07-29T06:44:27;101856.09;;;16.52;50.46
64835;BME280;51293;59.296;18.006;2022-07-29T06:46:52;101853.47;;;16.57;50.57
64835;BME280;51293;59.296;18.006;2022-07-29T06:49:19;101856.91;;;16.65;49.10
64835;BME280;51293;59.296;18.006;2022-07-29T06:51:45;101847.13;;;16.69;46.99
64835;BME280;51293;59.296;18.006;2022-07-29T06:54:10;101849.16;;;16.73;47.97
64835;BME280;51293;59.296;18.006;2022-07-29T06:56:36;101861.13;;;16.84;47.68
64835;BME280;51293;59.296;18.006;2022-07-29T06:59:03;101852.66;;;16.85;48.64
64835;BME280;51293;59.296;18.006;2022-07-29T07:01:28;101859.31;;;16.90;47.85
64835;BME280;51293;59.296;18.006;2022-07-29T07:03:54;101857.25;;;16.97;48.44
64835;BME280;51293;59.296;18.006;2022-07-29T07:06:19;101856.88;;;17.05;48.50
64835;BME280;51293;59.296;18.006;2022-07-29T07:08:45;101866.41;;;17.19;49.23
64835;BME280;51293;59.296;18.006;2022-07-29T07:11:10;101867.59;;;17.23;49.03
64835;BME280;51293;59.296;18.006;2022-07-29T07:13:36;101855.03;;;17.27;49.10
64835;BME280;51293;59.296;18.006;2022-07-29T07:16:02;101854.78;;;17.29;48.86
64835;BME280;51293;59.296;18.006;2022-07-29T07:18:28;101872.56;;;17.26;46.46
64835;BME280;51293;59.296;18.006;2022-07-29T07:20:53;101854.56;;;17.30;47.00
64835;BME280;51293;59.296;18.006;2022-07-29T07:23:19;101859.38;;;17.40;46.49
64835;BME280;51293;59.296;18.006;2022-07-29T07:25:44;101860.63;;;17.49;47.92
64835;BME280;51293;59.296;18.006;2022-07-29T07:28:10;101860.19;;;17.57;46.31
64835;BME280;51293;59.296;18.006;2022-07-29T07:30:35;101855.13;;;17.66;47.11
64835;BME280;51293;59.296;18.006;2022-07-29T07:33:01;101854.47;;;17.76;46.99
64835;BME280;51293;59.296;18.006;2022-07-29T07:35:26;101851.31;;;17.84;46.73
64835;BME280;51293;59.296;18.006;2022-07-29T07:37:53;101850.22;;;17.85;45.90
64835;BME280;51293;59.296;18.006;2022-07-29T07:40:19;101839.84;;;17.87;46.28
64835;BME280;51293;59.296;18.006;2022-07-29T07:42:44;101849.06;;;17.98;46.35
64835;BME280;51293;59.296;18.006;2022-07-29T07:45:11;101840.97;;;18.08;46.38
64835;BME280;51293;59.296;18.006;2022-07-29T07:47:37;101840.06;;;18.24;47.57
64835;BME280;51293;59.296;18.006;2022-07-29T07:50:05;101841.34;;;18.16;43.85
64835;BME280;51293;59.296;18.006;2022-07-29T07:52:31;101842.03;;;18.07;44.34
64835;BME280;51293;59.296;18.006;2022-07-29T07:54:56;101843.38;;;18.04;44.25
64835;BME280;51293;59.296;18.006;2022-07-29T07:57:22;101840.38;;;18.06;45.43
64835;BME280;51293;59.296;18.006;2022-07-29T07:59:47;101844.34;;;18.15;46.56
64835;BME280;51293;59.296;18.006;2022-07-29T08:02:13;101847.13;;;18.20;44.44
64835;BME280;51293;59.296;18.006;2022-07-29T08:04:38;101846.19;;;18.31;44.03
64835;BME280;51293;59.296;18.006;2022-07-29T08:07:05;101847.16;;;18.42;43.83
64835;BME280;51293;59.296;18.006;2022-07-29T08:09:31;101847.13;;;18.64;42.68
64835;BME280;51293;59.296;18.006;2022-07-29T08:11:57;101843.38;;;18.48;42.85
64835;BME280;51293;59.296;18.006;2022-07-29T08:14:23;101850.38;;;18.61;43.83
64835;BME280;51293;59.296;18.006;2022-07-29T08:16:48;101844.06;;;18.82;43.76
64835;BME280;51293;59.296;18.006;2022-07-29T08:19:14;101841.63;;;19.13;44.11
64835;BME280;51293;59.296;18.006;2022-07-29T08:21:39;101835.59;;;19.48;43.14
64835;BME280;51293;59.296;18.006;2022-07-29T08:24:05;101844.97;;;19.89;42.43
64835;BME280;51293;59.296;18.006;2022-07-29T08:26:50;101841.28;;;20.20;39.71
64835;BME280;51293;59.296;18.006;2022-07-29T08:29:15;101845.31;;;20.60;40.61
64835;BME280;51293;59.296;18.006;2022-07-29T08:31:41;101840.97;;;21.00;39.99
64835;BME280;51293;59.296;18.006;2022-07-29T08:34:07;101845.41;;;21.21;38.46
64835;BME280;51293;59.296;18.006;2022-07-29T08:36:33;101845.41;;;21.11;39.33
64835;BME280;51293;59.296;18.006;2022-07-29T08:38:59;101839.88;;;20.96;39.58
64835;BME280;51293;59.296;18.006;2022-07-29T08:41:25;101837.91;;;20.61;39.04
64835;BME280;51293;59.296;18.006;2022-07-29T08:43:51;101845.63;;;20.69;39.62
64835;BME280;51293;59.296;18.006;2022-07-29T08:46:18;101845.50;;;20.38;38.93
64835;BME280;51293;59.296;18.006;2022-07-29T08:48:43;101843.72;;;20.17;39.67
64835;BME280;51293;59.296;18.006;2022-07-29T08:51:14;101835.16;;;20.03;40.08
64835;BME280;51293;59.296;18.006;2022-07-29T08:53:41;101845.38;;;20.13;41.13
64835;BME280;51293;59.296;18.006;2022-07-29T08:56:11;101844.06;;;20.31;40.23
64835;BME280;51293;59.296;18.006;2022-07-29T08:58:37;101840.63;;;20.56;39.21
64835;BME280;51293;59.296;18.006;2022-07-29T09:01:03;101846.22;;;21.07;38.37
64835;BME280;51293;59.296;18.006;2022-07-29T09:03:34;101850.66;;;21.58;38.62
64835;BME280;51293;59.296;18.006;2022-07-29T09:06:02;101845.63;;;21.91;36.90
64835;BME280;51293;59.296;18.006;2022-07-29T09:08:28;101845.88;;;22.15;35.23
64835;BME280;51293;59.296;18.006;2022-07-29T09:10:54;101838.38;;;22.26;35.59
64835;BME280;51293;59.296;18.006;2022-07-29T09:13:21;101848.75;;;22.59;37.02
64835;BME280;51293;59.296;18.006;2022-07-29T09:15:46;101846.69;;;22.85;34.45
64835;BME280;51293;59.296;18.006;2022-07-29T09:18:12;101845.94;;;22.64;35.09
64835;BME280;51293;59.296;18.006;2022-07-29T09:20:37;101838.72;;;22.09;36.13
64835;BME280;51293;59.296;18.006;2022-07-29T09:23:22;101836.00;;;21.83;36.96
64835;BME280;51293;59.296;18.006;2022-07-29T09:25:47;101837.41;;;21.76;37.71
64835;BME280;51293;59.296;18.006;2022-07-29T09:28:15;101827.66;;;22.19;37.28
64835;BME280;51293;59.296;18.006;2022-07-29T09:30:54;101835.56;;;22.90;36.55
64835;BME280;51293;59.296;18.006;2022-07-29T09:33:23;101820.69;;;23.54;35.15
64835;BME280;51293;59.296;18.006;2022-07-29T09:36:18;101818.03;;;24.21;31.59
64835;BME280;51293;59.296;18.006;2022-07-29T09:38:57;101824.97;;;24.19;32.13
64835;BME280;51293;59.296;18.006;2022-07-29T09:41:22;101833.75;;;23.78;32.59
64835;BME280;51293;59.296;18.006;2022-07-29T09:43:58;101821.00;;;23.19;33.37
64835;BME280;51293;59.296;18.006;2022-07-29T09:46:24;101824.28;;;23.26;34.04
64835;BME280;51293;59.296;18.006;2022-07-29T09:49:12;101820.50;;;23.12;35.08
64835;BME280;51293;59.296;18.006;2022-07-29T09:51:38;101827.09;;;23.16;35.65
64835;BME280;51293;59.296;18.006;2022-07-29T09:56:48;101826.22;;;23.84;33.55
64835;BME280;51293;59.296;18.006;2022-07-29T09:59:14;101817.91;;;23.60;32.63
64835;BME280;51293;59.296;18.006;2022-07-29T10:01:41;101819.41;;;23.76;33.39
64835;BME280;51293;59.296;18.006;2022-07-29T10:04:06;101809.72;;;24.45;33.51
64835;BME280;51293;59.296;18.006;2022-07-29T10:06:32;101813.75;;;24.72;32.02
64835;BME280;51293;59.296;18.006;2022-07-29T10:09:18;101810.97;;;24.90;31.39
64835;BME280;51293;59.296;18.006;2022-07-29T10:12:10;101820.44;;;25.08;31.14
64835;BME280;51293;59.296;18.006;2022-07-29T10:14:37;101823.97;;;25.28;30.81
64835;BME280;51293;59.296;18.006;2022-07-29T10:17:08;101809.19;;;25.00;30.54
64835;BME280;51293;59.296;18.006;2022-07-29T10:19:38;101821.75;;;24.73;29.77
64835;BME280;51293;59.296;18.006;2022-07-29T10:22:06;101815.75;;;24.04;30.74
64835;BME280;51293;59.296;18.006;2022-07-29T10:24:33;101825.63;;;23.87;31.07
64835;BME280;51293;59.296;18.006;2022-07-29T10:27:00;101820.28;;;23.95;31.91
64835;BME280;51293;59.296;18.006;2022-07-29T10:29:26;101814.44;;;23.97;32.34
64835;BME280;51293;59.296;18.006;2022-07-29T10:32:02;101819.19;;;24.15;32.02
64835;BME280;51293;59.296;18.006;2022-07-29T10:38:02;101810.47;;;24.70;29.88
64835;BME280;51293;59.296;18.006;2022-07-29T10:40:50;101804.78;;;24.61;31.40
64835;BME280;51293;59.296;18.006;2022-07-29T10:43:43;101805.97;;;24.36;29.23
64835;BME280;51293;59.296;18.006;2022-07-29T10:46:10;101804.16;;;24.02;29.56
64835;BME280;51293;59.296;18.006;2022-07-29T10:49:42;101801.69;;;24.01;29.64
64835;BME280;51293;59.296;18.006;2022-07-29T10:52:06;101810.03;;;23.96;30.31
64835;BME280;51293;59.296;18.006;2022-07-29T10:57:16;101808.59;;;23.98;30.42
64835;BME280;51293;59.296;18.006;2022-07-29T11:00:27;101795.59;;;23.99;29.56
64835;BME280;51293;59.296;18.006;2022-07-29T11:02:51;101789.84;;;23.95;29.20
64835;BME280;51293;59.296;18.006;2022-07-29T11:05:20;101798.91;;;24.01;29.07
64835;BME280;51293;59.296;18.006;2022-07-29T11:10:41;101796.03;;;24.30;29.31
64835;BME280;51293;59.296;18.006;2022-07-29T11:13:07;101790.31;;;24.64;29.47
64835;BME280;51293;59.296;18.006;2022-07-29T11:15:52;101789.47;;;24.82;28.34
64835;BME280;51293;59.296;18.006;2022-07-29T11:18:17;101791.22;;;25.16;28.04
64835;BME280;51293;59.296;18.006;2022-07-29T11:20:45;101779.53;;;25.33;27.84
64835;BME280;51293;59.296;18.006;2022-07-29T11:23:27;101785.88;;;25.80;26.79
64835;BME280;51293;59.296;18.006;2022-07-29T11:29:29;101782.22;;;26.84;26.72
64835;BME280;51293;59.296;18.006;2022-07-29T11:32:08;101782.88;;;27.26;26.27
64835;BME280;51293;59.296;18.006;2022-07-29T11:34:34;101781.16;;;27.47;25.53
64835;BME280;51293;59.296;18.006;2022-07-29T11:39:30;101780.38;;;27.78;23.34
64835;BME280;51293;59.296;18.006;2022-07-29T11:45:18;101777.94;;;28.33;22.86
64835;BME280;51293;59.296;18.006;2022-07-29T11:47:50;101782.09;;;28.13;23.41
64835;BME280;51293;59.296;18.006;2022-07-29T11:50:18;101785.28;;;28.38;23.32
64835;BME280;51293;59.296;18.006;2022-07-29T11:52:51;101779.78;;;28.90;23.76
64835;BME280;51293;59.296;18.006;2022-07-29T11:55:19;101778.28;;;28.92;22.86
64835;BME280;51293;59.296;18.006;2022-07-29T11:57:48;101770.38;;;29.03;22.66
64835;BME280;51293;59.296;18.006;2022-07-29T12:00:22;101766.28;;;29.09;23.56
64835;BME280;51293;59.296;18.006;2022-07-29T12:02:48;101765.31;;;29.05;22.51
64835;BME280;51293;59.296;18.006;2022-07-29T12:05:13;101766.13;;;28.62;23.54
64835;BME280;51293;59.296;18.006;2022-07-29T12:07:39;101762.03;;;28.60;24.19
64835;BME280;51293;59.296;18.006;2022-07-29T12:10:06;101768.28;;;28.74;23.24
64835;BME280;51293;59.296;18.006;2022-07-29T12:12:32;101765.56;;;29.38;21.05
64835;BME280;51293;59.296;18.006;2022-07-29T12:14:58;101767.03;;;29.82;21.67
64835;BME280;51293;59.296;18.006;2022-07-29T12:17:34;101772.59;;;30.71;21.42
64835;BME280;51293;59.296;18.006;2022-07-29T12:20:02;101754.84;;;30.46;20.72
64835;BME280;51293;59.296;18.006;2022-07-29T12:22:30;101749.69;;;29.21;22.34
64835;BME280;51293;59.296;18.006;2022-07-29T12:25:01;101758.03;;;28.17;23.26
64835;BME280;51293;59.296;18.006;2022-07-29T12:27:27;101758.78;;;28.58;23.78
64835;BME280;51293;59.296;18.006;2022-07-29T12:29:57;101752.84;;;28.85;24.52
64835;BME280;51293;59.296;18.006;2022-07-29T12:32:23;101749.91;;;29.46;23.19
64835;BME280;51293;59.296;18.006;2022-07-29T12:34:49;101748.19;;;29.79;22.38
64835;BME280;51293;59.296;18.006;2022-07-29T12:37:15;101748.69;;;30.32;22.86
64835;BME280;51293;59.296;18.006;2022-07-29T12:39:41;101756.88;;;30.79;21.17
64835;BME280;51293;59.296;18.006;2022-07-29T12:42:14;101746.84;;;30.77;23.16
64835;BME280;51293;59.296;18.006;2022-07-29T12:44:47;101750.22;;;30.71;22.42
64835;BME280;51293;59.296;18.006;2022-07-29T12:47:13;101742.94;;;31.24;21.68
64835;BME280;51293;59.296;18.006;2022-07-29T12:49:39;101752.53;;;31.02;20.76
64835;BME280;51293;59.296;18.006;2022-07-29T12:52:26;101740.13;;;29.78;21.12
64835;BME280;51293;59.296;18.006;2022-07-29T12:54:52;101747.84;;;29.34;22.46
64835;BME280;51293;59.296;18.006;2022-07-29T12:57:18;101741.84;;;28.71;23.84
64835;BME280;51293;59.296;18.006;2022-07-29T12:59:43;101747.44;;;29.06;22.08
64835;BME280;51293;59.296;18.006;2022-07-29T13:02:23;101745.19;;;29.46;22.46
64835;BME280;51293;59.296;18.006;2022-07-29T13:04:59;101741.44;;;30.10;22.08
64835;BME280;51293;59.296;18.006;2022-07-29T13:07:32;101748.56;;;30.49;21.83
64835;BME280;51293;59.296;18.006;2022-07-29T13:10:15;101741.94;;;30.74;21.71
64835;BME280;51293;59.296;18.006;2022-07-29T13:13:10;101736.72;;;30.85;22.27
64835;BME280;51293;59.296;18.006;2022-07-29T13:16:05;101734.09;;;31.34;21.17
64835;BME280;51293;59.296;18.006;2022-07-29T13:18:34;101728.66;;;31.86;20.47
64835;BME280;51293;59.296;18.006;2022-07-29T13:21:14;101726.28;;;32.13;20.19